sensor_id;sensor_type;location;lat;lon;timestamp;P1;durP1;ratioP1;P2;durP2;ratioP2
66485;SDS011;53303;47.476;8.084;2023-10-19T00:00:34;10.20;;;3.10;;
66485;SDS011;53303;47.476;8.084;2023-10-19T00:05:35;11.25;;;2.90;;
66485;SDS011;53303;47.476;8.084;2023-10-19T00:08:01;8.90;;;2.97;;
66485;SDS011;53303;47.476;8.084;2023-10-19T00:10:39;10.25;;;3.45;;
66485;SDS011;53303;47.476;8.084;2023-10-19T00:13:08;12.05;;;3.17;;
66485;SDS011;53303;47.476;8.084;2023-10-19T00:15:43;9.38;;;2.90;;
66485;SDS011;53303;47.476;8.084;2023-10-19T00:18:13;10.90;;;3.10;;
66485;SDS011;53303;47.476;8.084;2023-10-19T00:20:43;11.50;;;3.70;;
66485;SDS011;53303;47.476;8.084;2023-10-19T00:23:13;10.55;;;3.33;;
66485;SDS011;53303;47.476;8.084;2023-10-19T00:25:39;10.82;;;3.35;;
66485;SDS011;53303;47.476;8.084;2023-10-19T00:28:09;9.05;;;2.67;;
66485;SDS011;53303;47.476;8.084;2023-10-19T00:30:37;8.55;;;3.17;;
66485;SDS011;53303;47.476;8.084;2023-10-19T00:33:03;7.70;;;3.17;;
66485;SDS011;53303;47.476;8.084;2023-10-19T00:35:30;9.02;;;2.60;;
66485;SDS011;53303;47.476;8.084;2023-10-19T00:38:07;9.70;;;3.10;;
66485;SDS011;53303;47.476;8.084;2023-10-19T00:41:07;7.88;;;2.83;;
66485;SDS011;53303;47.476;8.084;2023-10-19T00:43:41;7.18;;;2.72;;
66485;SDS011;53303;47.476;8.084;2023-10-19T00:48:45;9.15;;;3.38;;
66485;SDS011;53303;47.476;8.084;2023-10-19T00:51:14;9.25;;;2.70;;
66485;SDS011;53303;47.476;8.084;2023-10-19T00:53:54;9.68;;;2.70;;
66485;SDS011;53303;47.476;8.084;2023-10-19T00:56:22;11.30;;;3.20;;
66485;SDS011;53303;47.476;8.084;2023-10-19T00:58:55;8.70;;;2.85;;
66485;SDS011;53303;47.476;8.084;2023-10-19T01:01:26;9.70;;;2.80;;
66485;SDS011;53303;47.476;8.084;2023-10-19T01:03:54;8.05;;;2.55;;
66485;SDS011;53303;47.476;8.084;2023-10-19T01:06:24;11.48;;;3.25;;
66485;SDS011;53303;47.476;8.084;2023-10-19T01:08:51;8.38;;;2.63;;
66485;SDS011;53303;47.476;8.084;2023-10-19T01:11:20;8.95;;;2.72;;
66485;SDS011;53303;47.476;8.084;2023-10-19T01:13:54;9.93;;;2.80;;
66485;SDS011;53303;47.476;8.084;2023-10-19T01:16:24;10.80;;;2.53;;
66485;SDS011;53303;47.476;8.084;2023-10-19T01:18:51;12.45;;;3.13;;
66485;SDS011;53303;47.476;8.084;2023-10-19T01:21:22;8.55;;;2.83;;
66485;SDS011;53303;47.476;8.084;2023-10-19T01:23:52;11.68;;;3.30;;
66485;SDS011;53303;47.476;8.084;2023-10-19T01:26:18;9.57;;;3.22;;
66485;SDS011;53303;47.476;8.084;2023-10-19T01:28:57;9.13;;;2.75;;
66485;SDS011;53303;47.476;8.084;2023-10-19T01:31:38;8.27;;;3.00;;
66485;SDS011;53303;47.476;8.084;2023-10-19T01:34:18;7.15;;;2.72;;
66485;SDS011;53303;47.476;8.084;2023-10-19T01:36:45;9.13;;;2.53;;
66485;SDS011;53303;47.476;8.084;2023-10-19T01:39:15;8.52;;;2.88;;
66485;SDS011;53303;47.476;8.084;2023-10-19T01:41:46;8.00;;;2.80;;
66485;SDS011;53303;47.476;8.084;2023-10-19T01:44:15;11.02;;;2.90;;
66485;SDS011;53303;47.476;8.084;2023-10-19T01:46:42;8.73;;;3.00;;
66485;SDS011;53303;47.476;8.084;2023-10-19T01:49:10;7.70;;;2.83;;
66485;SDS011;53303;47.476;8.084;2023-10-19T01:51:36;8.38;;;2.63;;
66485;SDS011;53303;47.476;8.084;2023-10-19T01:54:09;7.65;;;2.50;;
66485;SDS011;53303;47.476;8.084;2023-10-19T01:56:35;7.40;;;2.70;;
66485;SDS011;53303;47.476;8.084;2023-10-19T01:59:07;10.80;;;2.65;;
66485;SDS011;53303;47.476;8.084;2023-10-19T02:01:36;6.88;;;2.97;;
66485;SDS011;53303;47.476;8.084;2023-10-19T02:04:05;7.90;;;2.40;;
66485;SDS011;53303;47.476;8.084;2023-10-19T02:06:34;8.73;;;2.70;;
66485;SDS011;53303;47.476;8.084;2023-10-19T02:09:04;6.95;;;2.58;;
66485;SDS011;53303;47.476;8.084;2023-10-19T02:11:42;8.20;;;3.33;;
66485;SDS011;53303;47.476;8.084;2023-10-19T02:14:12;10.27;;;3.22;;
66485;SDS011;53303;47.476;8.084;2023-10-19T02:16:45;8.13;;;2.55;;
66485;SDS011;53303;47.476;8.084;2023-10-19T02:19:13;8.80;;;2.97;;
66485;SDS011;53303;47.476;8.084;2023-10-19T02:21:39;7.00;;;3.60;;
66485;SDS011;53303;47.476;8.084;2023-10-19T02:24:09;11.60;;;2.78;;
66485;SDS011;53303;47.476;8.084;2023-10-19T02:26:44;7.88;;;2.72;;
66485;SDS011;53303;47.476;8.084;2023-10-19T02:29:12;6.80;;;2.50;;
66485;SDS011;53303;47.476;8.084;2023-10-19T02:31:42;8.13;;;2.40;;
66485;SDS011;53303;47.476;8.084;2023-10-19T02:34:08;11.93;;;2.50;;
66485;SDS011;53303;47.476;8.084;2023-10-19T02:36:37;9.07;;;2.80;;
66485;SDS011;53303;47.476;8.084;2023-10-19T02:39:04;9.65;;;2.47;;
66485;SDS011;53303;47.476;8.084;2023-10-19T02:41:36;7.55;;;2.53;;
66485;SDS011;53303;47.476;8.084;2023-10-19T02:44:09;7.75;;;2.58;;
66485;SDS011;53303;47.476;8.084;2023-10-19T02:46:42;7.97;;;2.63;;
66485;SDS011;53303;47.476;8.084;2023-10-19T02:49:08;8.40;;;2.83;;
66485;SDS011;53303;47.476;8.084;2023-10-19T02:51:37;9.10;;;2.53;;
66485;SDS011;53303;47.476;8.084;2023-10-19T02:54:13;10.40;;;2.97;;
66485;SDS011;53303;47.476;8.084;2023-10-19T02:56:52;9.02;;;2.60;;
66485;SDS011;53303;47.476;8.084;2023-10-19T02:59:19;8.30;;;2.67;;
66485;SDS011;53303;47.476;8.084;2023-10-19T03:01:52;7.88;;;2.78;;
66485;SDS011;53303;47.476;8.084;2023-10-19T03:04:26;9.20;;;2.72;;
66485;SDS011;53303;47.476;8.084;2023-10-19T03:06:54;6.50;;;2.40;;
66485;SDS011;53303;47.476;8.084;2023-10-19T03:09:22;8.45;;;2.45;;
66485;SDS011;53303;47.476;8.084;2023-10-19T03:14:24;6.25;;;2.28;;
66485;SDS011;53303;47.476;8.084;2023-10-19T03:16:53;8.52;;;2.70;;
66485;SDS011;53303;47.476;8.084;2023-10-19T03:19:22;7.00;;;2.47;;
66485;SDS011;53303;47.476;8.084;2023-10-19T03:21:49;7.40;;;2.90;;
66485;SDS011;53303;47.476;8.084;2023-10-19T03:24:19;8.65;;;2.42;;
66485;SDS011;53303;47.476;8.084;2023-10-19T03:27:04;7.20;;;2.22;;
66485;SDS011;53303;47.476;8.084;2023-10-19T03:29:46;9.25;;;2.80;;
66485;SDS011;53303;47.476;8.084;2023-10-19T03:32:13;9.07;;;2.50;;
66485;SDS011;53303;47.476;8.084;2023-10-19T03:34:39;6.63;;;2.72;;
66485;SDS011;53303;47.476;8.084;2023-10-19T03:37:08;5.35;;;2.28;;
66485;SDS011;53303;47.476;8.084;2023-10-19T03:39:39;7.22;;;2.72;;
66485;SDS011;53303;47.476;8.084;2023-10-19T03:42:05;7.70;;;2.88;;
66485;SDS011;53303;47.476;8.084;2023-10-19T03:44:32;7.45;;;2.35;;
66485;SDS011;53303;47.476;8.084;2023-10-19T03:47:21;6.70;;;2.72;;
66485;SDS011;53303;47.476;8.084;2023-10-19T03:52:39;8.45;;;3.15;;
66485;SDS011;53303;47.476;8.084;2023-10-19T03:55:07;10.23;;;3.00;;
66485;SDS011;53303;47.476;8.084;2023-10-19T03:57:37;7.25;;;2.63;;
66485;SDS011;53303;47.476;8.084;2023-10-19T04:00:07;6.43;;;2.38;;
66485;SDS011;53303;47.476;8.084;2023-10-19T04:02:41;5.55;;;2.88;;
66485;SDS011;53303;47.476;8.084;2023-10-19T04:05:07;7.47;;;2.70;;
66485;SDS011;53303;47.476;8.084;2023-10-19T04:07:35;6.07;;;2.33;;
66485;SDS011;53303;47.476;8.084;2023-10-19T04:10:01;12.80;;;2.38;;
66485;SDS011;53303;47.476;8.084;2023-10-19T04:12:32;10.10;;;2.72;;
66485;SDS011;53303;47.476;8.084;2023-10-19T04:15:03;7.60;;;2.40;;
66485;SDS011;53303;47.476;8.084;2023-10-19T04:17:36;14.02;;;4.28;;
66485;SDS011;53303;47.476;8.084;2023-10-19T04:20:04;13.20;;;3.90;;
66485;SDS011;53303;47.476;8.084;2023-10-19T04:22:45;9.27;;;2.88;;
66485;SDS011;53303;47.476;8.084;2023-10-19T04:25:15;9.02;;;2.65;;
66485;SDS011;53303;47.476;8.084;2023-10-19T04:27:43;8.20;;;2.92;;
66485;SDS011;53303;47.476;8.084;2023-10-19T04:30:10;11.13;;;3.20;;
66485;SDS011;53303;47.476;8.084;2023-10-19T04:32:51;9.90;;;3.03;;
66485;SDS011;53303;47.476;8.084;2023-10-19T04:35:22;9.82;;;2.70;;
66485;SDS011;53303;47.476;8.084;2023-10-19T04:37:54;11.32;;;3.25;;
66485;SDS011;53303;47.476;8.084;2023-10-19T04:40:24;10.85;;;2.58;;
66485;SDS011;53303;47.476;8.084;2023-10-19T04:42:52;9.13;;;2.85;;
66485;SDS011;53303;47.476;8.084;2023-10-19T04:45:19;10.80;;;2.50;;
66485;SDS011;53303;47.476;8.084;2023-10-19T04:47:45;10.88;;;3.28;;
66485;SDS011;53303;47.476;8.084;2023-10-19T04:50:11;7.43;;;3.03;;
66485;SDS011;53303;47.476;8.084;2023-10-19T04:52:39;8.68;;;2.60;;
66485;SDS011;53303;47.476;8.084;2023-10-19T04:55:05;7.68;;;2.40;;
66485;SDS011;53303;47.476;8.084;2023-10-19T04:57:30;10.90;;;2.78;;
66485;SDS011;53303;47.476;8.084;2023-10-19T04:59:56;8.65;;;2.78;;
66485;SDS011;53303;47.476;8.084;2023-10-19T05:02:24;9.18;;;3.25;;
66485;SDS011;53303;47.476;8.084;2023-10-19T05:04:50;6.25;;;2.60;;
66485;SDS011;53303;47.476;8.084;2023-10-19T05:07:18;6.55;;;2.90;;
66485;SDS011;53303;47.476;8.084;2023-10-19T05:09:46;10.05;;;2.53;;
66485;SDS011;53303;47.476;8.084;2023-10-19T05:12:14;10.05;;;3.25;;
66485;SDS011;53303;47.476;8.084;2023-10-19T05:14:40;11.07;;;3.00;;
66485;SDS011;53303;47.476;8.084;2023-10-19T05:17:08;8.77;;;2.45;;
66485;SDS011;53303;47.476;8.084;2023-10-19T05:19:39;7.78;;;2.42;;
66485;SDS011;53303;47.476;8.084;2023-10-19T05:22:08;6.80;;;2.55;;
66485;SDS011;53303;47.476;8.084;2023-10-19T05:24:37;8.07;;;2.40;;
66485;SDS011;53303;47.476;8.084;2023-10-19T05:27:02;6.35;;;2.60;;
66485;SDS011;53303;47.476;8.084;2023-10-19T05:29:30;8.50;;;2.47;;
66485;SDS011;53303;47.476;8.084;2023-10-19T05:31:58;9.73;;;3.13;;
66485;SDS011;53303;47.476;8.084;2023-10-19T05:34:27;9.85;;;2.65;;
66485;SDS011;53303;47.476;8.084;2023-10-19T05:36:54;7.53;;;2.35;;
66485;SDS011;53303;47.476;8.084;2023-10-19T05:39:23;9.57;;;2.80;;
66485;SDS011;53303;47.476;8.084;2023-10-19T05:41:53;5.80;;;2.63;;
66485;SDS011;53303;47.476;8.084;2023-10-19T05:44:19;8.18;;;2.80;;
66485;SDS011;53303;47.476;8.084;2023-10-19T05:46:44;9.13;;;2.55;;
66485;SDS011;53303;47.476;8.084;2023-10-19T05:49:11;8.02;;;2.60;;
66485;SDS011;53303;47.476;8.084;2023-10-19T05:51:37;7.38;;;2.47;;
66485;SDS011;53303;47.476;8.084;2023-10-19T05:54:03;7.20;;;2.85;;
66485;SDS011;53303;47.476;8.084;2023-10-19T05:56:29;7.57;;;2.78;;
66485;SDS011;53303;47.476;8.084;2023-10-19T05:58:55;8.00;;;2.65;;
66485;SDS011;53303;47.476;8.084;2023-10-19T06:01:21;8.90;;;2.30;;
66485;SDS011;53303;47.476;8.084;2023-10-19T06:03:49;8.30;;;2.53;;
66485;SDS011;53303;47.476;8.084;2023-10-19T06:06:15;6.00;;;2.85;;
66485;SDS011;53303;47.476;8.084;2023-10-19T06:08:41;7.80;;;2.60;;
66485;SDS011;53303;47.476;8.084;2023-10-19T06:11:06;6.55;;;2.40;;
66485;SDS011;53303;47.476;8.084;2023-10-19T06:13:34;9.05;;;2.40;;
66485;SDS011;53303;47.476;8.084;2023-10-19T06:16:02;8.27;;;2.60;;
66485;SDS011;53303;47.476;8.084;2023-10-19T06:18:28;9.85;;;2.67;;
66485;SDS011;53303;47.476;8.084;2023-10-19T06:20:54;8.10;;;2.60;;
66485;SDS011;53303;47.476;8.084;2023-10-19T06:23:20;8.65;;;2.45;;
66485;SDS011;53303;47.476;8.084;2023-10-19T06:25:45;8.40;;;2.55;;
66485;SDS011;53303;47.476;8.084;2023-10-19T06:28:12;9.85;;;3.15;;
66485;SDS011;53303;47.476;8.084;2023-10-19T06:30:37;8.27;;;2.50;;
66485;SDS011;53303;47.476;8.084;2023-10-19T06:33:03;7.45;;;2.90;;
66485;SDS011;53303;47.476;8.084;2023-10-19T06:35:31;9.27;;;2.92;;
66485;SDS011;53303;47.476;8.084;2023-10-19T06:37:57;6.00;;;2.47;;
66485;SDS011;53303;47.476;8.084;2023-10-19T06:40:26;6.60;;;2.63;;
66485;SDS011;53303;47.476;8.084;2023-10-19T06:42:54;8.07;;;2.97;;
66485;SDS011;53303;47.476;8.084;2023-10-19T06:45:23;7.18;;;2.60;;
66485;SDS011;53303;47.476;8.084;2023-10-19T06:47:50;13.27;;;2.90;;
66485;SDS011;53303;47.476;8.084;2023-10-19T06:50:18;8.27;;;2.30;;
66485;SDS011;53303;47.476;8.084;2023-10-19T06:52:50;6.57;;;2.40;;
66485;SDS011;53303;47.476;8.084;2023-10-19T06:55:17;7.85;;;2.28;;
66485;SDS011;53303;47.476;8.084;2023-10-19T06:57:53;9.75;;;2.63;;
66485;SDS011;53303;47.476;8.084;2023-10-19T07:00:21;5.60;;;2.28;;
66485;SDS011;53303;47.476;8.084;2023-10-19T07:02:52;7.75;;;2.70;;
66485;SDS011;53303;47.476;8.084;2023-10-19T07:05:20;8.88;;;2.45;;
66485;SDS011;53303;47.476;8.084;2023-10-19T07:07:47;8.38;;;2.55;;
66485;SDS011;53303;47.476;8.084;2023-10-19T07:10:15;7.68;;;2.20;;
66485;SDS011;53303;47.476;8.084;2023-10-19T07:12:43;8.80;;;2.20;;
66485;SDS011;53303;47.476;8.084;2023-10-19T07:15:12;7.90;;;2.80;;
66485;SDS011;53303;47.476;8.084;2023-10-19T07:17:44;5.53;;;2.50;;
66485;SDS011;53303;47.476;8.084;2023-10-19T07:20:12;7.65;;;2.47;;
66485;SDS011;53303;47.476;8.084;2023-10-19T07:22:52;7.70;;;2.33;;
66485;SDS011;53303;47.476;8.084;2023-10-19T07:25:21;7.70;;;2.63;;
66485;SDS011;53303;47.476;8.084;2023-10-19T07:27:48;6.93;;;2.53;;
66485;SDS011;53303;47.476;8.084;2023-10-19T07:30:15;8.43;;;2.38;;
66485;SDS011;53303;47.476;8.084;2023-10-19T07:32:45;7.47;;;2.70;;
66485;SDS011;53303;47.476;8.084;2023-10-19T07:35:11;10.55;;;2.47;;
66485;SDS011;53303;47.476;8.084;2023-10-19T07:37:36;7.05;;;2.78;;
66485;SDS011;53303;47.476;8.084;2023-10-19T07:40:03;9.30;;;2.35;;
66485;SDS011;53303;47.476;8.084;2023-10-19T07:42:30;7.80;;;2.20;;
66485;SDS011;53303;47.476;8.084;2023-10-19T07:45:01;7.03;;;2.65;;
66485;SDS011;53303;47.476;8.084;2023-10-19T07:47:27;5.97;;;2.10;;
66485;SDS011;53303;47.476;8.084;2023-10-19T07:49:52;8.10;;;2.20;;
66485;SDS011;53303;47.476;8.084;2023-10-19T07:52:21;7.13;;;2.53;;
66485;SDS011;53303;47.476;8.084;2023-10-19T07:54:48;7.93;;;2.10;;
66485;SDS011;53303;47.476;8.084;2023-10-19T07:57:14;6.53;;;2.15;;
66485;SDS011;53303;47.476;8.084;2023-10-19T07:59:43;7.55;;;2.20;;
66485;SDS011;53303;47.476;8.084;2023-10-19T08:02:09;6.70;;;2.50;;
66485;SDS011;53303;47.476;8.084;2023-10-19T08:04:35;5.03;;;1.70;;
66485;SDS011;53303;47.476;8.084;2023-10-19T08:07:01;7.97;;;2.05;;
66485;SDS011;53303;47.476;8.084;2023-10-19T08:09:29;7.78;;;2.47;;
66485;SDS011;53303;47.476;8.084;2023-10-19T08:11:58;7.82;;;2.22;;
66485;SDS011;53303;47.476;8.084;2023-10-19T08:14:27;8.10;;;2.60;;
66485;SDS011;53303;47.476;8.084;2023-10-19T08:16:52;7.80;;;2.80;;
66485;SDS011;53303;47.476;8.084;2023-10-19T08:19:19;6.00;;;2.03;;
66485;SDS011;53303;47.476;8.084;2023-10-19T08:21:47;6.65;;;2.17;;
66485;SDS011;53303;47.476;8.084;2023-10-19T08:24:12;7.40;;;2.10;;
66485;SDS011;53303;47.476;8.084;2023-10-19T08:26:43;6.28;;;2.10;;
66485;SDS011;53303;47.476;8.084;2023-10-19T08:29:10;6.60;;;2.65;;
66485;SDS011;53303;47.476;8.084;2023-10-19T08:31:43;4.68;;;1.92;;
66485;SDS011;53303;47.476;8.084;2023-10-19T08:34:11;6.13;;;2.10;;
66485;SDS011;53303;47.476;8.084;2023-10-19T08:36:42;6.03;;;2.40;;
66485;SDS011;53303;47.476;8.084;2023-10-19T08:39:10;6.22;;;2.70;;
66485;SDS011;53303;47.476;8.084;2023-10-19T08:41:41;7.18;;;2.42;;
66485;SDS011;53303;47.476;8.084;2023-10-19T08:44:09;5.55;;;2.25;;
66485;SDS011;53303;47.476;8.084;2023-10-19T08:46:43;6.30;;;2.60;;
66485;SDS011;53303;47.476;8.084;2023-10-19T08:49:13;8.88;;;2.15;;
66485;SDS011;53303;47.476;8.084;2023-10-19T08:51:52;6.22;;;1.90;;
66485;SDS011;53303;47.476;8.084;2023-10-19T08:54:22;5.75;;;2.00;;
66485;SDS011;53303;47.476;8.084;2023-10-19T08:56:47;5.60;;;2.00;;
66485;SDS011;53303;47.476;8.084;2023-10-19T08:59:13;5.95;;;1.80;;
66485;SDS011;53303;47.476;8.084;2023-10-19T09:01:42;5.20;;;2.00;;
66485;SDS011;53303;47.476;8.084;2023-10-19T09:04:09;5.13;;;2.17;;
66485;SDS011;53303;47.476;8.084;2023-10-19T09:06:39;6.78;;;2.38;;
66485;SDS011;53303;47.476;8.084;2023-10-19T09:09:10;5.15;;;1.95;;
66485;SDS011;53303;47.476;8.084;2023-10-19T09:11:44;4.60;;;2.10;;
66485;SDS011;53303;47.476;8.084;2023-10-19T09:14:11;5.78;;;2.13;;
66485;SDS011;53303;47.476;8.084;2023-10-19T09:16:55;5.10;;;2.20;;
66485;SDS011;53303;47.476;8.084;2023-10-19T09:19:42;5.57;;;2.08;;
66485;SDS011;53303;47.476;8.084;2023-10-19T09:22:09;5.22;;;1.90;;
66485;SDS011;53303;47.476;8.084;2023-10-19T09:24:46;6.70;;;2.25;;
66485;SDS011;53303;47.476;8.084;2023-10-19T09:27:16;5.15;;;1.85;;
66485;SDS011;53303;47.476;8.084;2023-10-19T09:29:42;6.05;;;2.13;;
66485;SDS011;53303;47.476;8.084;2023-10-19T09:32:08;4.63;;;1.90;;
66485;SDS011;53303;47.476;8.084;2023-10-19T09:34:33;6.55;;;1.70;;
66485;SDS011;53303;47.476;8.084;2023-10-19T09:37:01;5.35;;;2.00;;
66485;SDS011;53303;47.476;8.084;2023-10-19T09:39:29;4.82;;;1.70;;
66485;SDS011;53303;47.476;8.084;2023-10-19T09:42:10;5.85;;;2.30;;
66485;SDS011;53303;47.476;8.084;2023-10-19T09:44:55;6.10;;;1.92;;
66485;SDS011;53303;47.476;8.084;2023-10-19T09:47:30;4.82;;;2.17;;
66485;SDS011;53303;47.476;8.084;2023-10-19T09:50:02;6.00;;;2.50;;
66485;SDS011;53303;47.476;8.084;2023-10-19T09:52:31;5.75;;;1.92;;
66485;SDS011;53303;47.476;8.084;2023-10-19T09:55:00;5.43;;;1.88;;
66485;SDS011;53303;47.476;8.084;2023-10-19T09:57:37;5.57;;;1.83;;
66485;SDS011;53303;47.476;8.084;2023-10-19T10:00:07;4.95;;;1.77;;
66485;SDS011;53303;47.476;8.084;2023-10-19T10:02:42;4.97;;;2.15;;
66485;SDS011;53303;47.476;8.084;2023-10-19T10:10:42;4.68;;;1.92;;
66485;SDS011;53303;47.476;8.084;2023-10-19T10:13:54;5.40;;;1.90;;
66485;SDS011;53303;47.476;8.084;2023-10-19T10:16:03;8.00;;;1.90;;
66485;SDS011;53303;47.476;8.084;2023-10-19T10:18:29;6.85;;;2.20;;
66485;SDS011;53303;47.476;8.084;2023-10-19T10:23:41;5.15;;;2.28;;
66485;SDS011;53303;47.476;8.084;2023-10-19T10:26:07;4.68;;;2.17;;
66485;SDS011;53303;47.476;8.084;2023-10-19T10:28:38;5.85;;;1.90;;
66485;SDS011;53303;47.476;8.084;2023-10-19T10:36:08;4.68;;;1.90;;
66485;SDS011;53303;47.476;8.084;2023-10-19T10:38:35;5.50;;;2.03;;
66485;SDS011;53303;47.476;8.084;2023-10-19T10:41:01;5.95;;;1.90;;
66485;SDS011;53303;47.476;8.084;2023-10-19T10:43:27;4.63;;;1.95;;
66485;SDS011;53303;47.476;8.084;2023-10-19T10:46:05;7.47;;;2.38;;
66485;SDS011;53303;47.476;8.084;2023-10-19T10:48:32;8.25;;;2.45;;
66485;SDS011;53303;47.476;8.084;2023-10-19T10:50:58;5.32;;;2.30;;
66485;SDS011;53303;47.476;8.084;2023-10-19T10:53:24;5.82;;;1.92;;
66485;SDS011;53303;47.476;8.084;2023-10-19T10:55:51;6.07;;;2.90;;
66485;SDS011;53303;47.476;8.084;2023-10-19T10:58:18;4.38;;;2.30;;
66485;SDS011;53303;47.476;8.084;2023-10-19T11:00:44;5.40;;;2.50;;
66485;SDS011;53303;47.476;8.084;2023-10-19T11:03:12;4.63;;;2.22;;
66485;SDS011;53303;47.476;8.084;2023-10-19T11:05:39;8.10;;;2.72;;
66485;SDS011;53303;47.476;8.084;2023-10-19T11:10:47;7.10;;;2.28;;
66485;SDS011;53303;47.476;8.084;2023-10-19T11:13:16;6.68;;;2.30;;
66485;SDS011;53303;47.476;8.084;2023-10-19T11:15:53;6.68;;;2.72;;
66485;SDS011;53303;47.476;8.084;2023-10-19T11:18:31;7.68;;;2.83;;
66485;SDS011;53303;47.476;8.084;2023-10-19T11:20:57;6.88;;;2.80;;
66485;SDS011;53303;47.476;8.084;2023-10-19T11:23:39;4.78;;;2.25;;
66485;SDS011;53303;47.476;8.084;2023-10-19T11:26:12;5.30;;;2.22;;
66485;SDS011;53303;47.476;8.084;2023-10-19T11:28:40;5.65;;;2.05;;
66485;SDS011;53303;47.476;8.084;2023-10-19T11:31:13;4.80;;;2.20;;
66485;SDS011;53303;47.476;8.084;2023-10-19T11:33:40;4.90;;;2.25;;
66485;SDS011;53303;47.476;8.084;2023-10-19T11:36:08;5.20;;;2.45;;
66485;SDS011;53303;47.476;8.084;2023-10-19T11:38:43;6.53;;;2.90;;
66485;SDS011;53303;47.476;8.084;2023-10-19T11:41:16;6.60;;;2.80;;
66485;SDS011;53303;47.476;8.084;2023-10-19T11:43:42;5.53;;;2.80;;
66485;SDS011;53303;47.476;8.084;2023-10-19T11:46:16;5.20;;;2.50;;
66485;SDS011;53303;47.476;8.084;2023-10-19T11:48:50;5.03;;;2.53;;
66485;SDS011;53303;47.476;8.084;2023-10-19T11:51:16;6.25;;;2.60;;
66485;SDS011;53303;47.476;8.084;2023-10-19T11:53:44;5.78;;;2.33;;
66485;SDS011;53303;47.476;8.084;2023-10-19T11:56:12;5.53;;;2.95;;
66485;SDS011;53303;47.476;8.084;2023-10-19T11:58:38;6.43;;;2.30;;
66485;SDS011;53303;47.476;8.084;2023-10-19T12:01:08;6.32;;;2.90;;
66485;SDS011;53303;47.476;8.084;2023-10-19T12:03:37;5.43;;;2.47;;
66485;SDS011;53303;47.476;8.084;2023-10-19T12:06:04;5.88;;;2.47;;
66485;SDS011;53303;47.476;8.084;2023-10-19T12:08:33;5.40;;;2.45;;
66485;SDS011;53303;47.476;8.084;2023-10-19T12:11:00;5.85;;;2.83;;
66485;SDS011;53303;47.476;8.084;2023-10-19T12:13:30;6.68;;;2.80;;
66485;SDS011;53303;47.476;8.084;2023-10-19T12:16:00;5.47;;;2.63;;
66485;SDS011;53303;47.476;8.084;2023-10-19T12:18:29;4.68;;;2.30;;
66485;SDS011;53303;47.476;8.084;2023-10-19T12:20:57;5.32;;;2.60;;
66485;SDS011;53303;47.476;8.084;2023-10-19T12:23:25;7.10;;;3.17;;
66485;SDS011;53303;47.476;8.084;2023-10-19T12:25:53;5.22;;;2.38;;
66485;SDS011;53303;47.476;8.084;2023-10-19T12:28:19;5.93;;;3.22;;
66485;SDS011;53303;47.476;8.084;2023-10-19T12:30:44;6.82;;;2.65;;
66485;SDS011;53303;47.476;8.084;2023-10-19T12:33:12;5.95;;;2.60;;
66485;SDS011;53303;47.476;8.084;2023-10-19T12:35:40;8.18;;;3.00;;
66485;SDS011;53303;47.476;8.084;2023-10-19T12:38:24;6.40;;;3.10;;
66485;SDS011;53303;47.476;8.084;2023-10-19T12:40:52;7.55;;;3.45;;
66485;SDS011;53303;47.476;8.084;2023-10-19T12:43:19;8.20;;;3.20;;
66485;SDS011;53303;47.476;8.084;2023-10-19T12:45:47;6.90;;;3.40;;
66485;SDS011;53303;47.476;8.084;2023-10-19T12:48:19;6.93;;;2.92;;
66485;SDS011;53303;47.476;8.084;2023-10-19T12:50:45;8.50;;;3.60;;
66485;SDS011;53303;47.476;8.084;2023-10-19T12:53:11;7.30;;;3.38;;
66485;SDS011;53303;47.476;8.084;2023-10-19T12:55:38;8.20;;;3.00;;
66485;SDS011;53303;47.476;8.084;2023-10-19T12:58:04;6.63;;;3.40;;
66485;SDS011;53303;47.476;8.084;2023-10-19T13:00:34;6.35;;;2.72;;
66485;SDS011;53303;47.476;8.084;2023-10-19T13:03:09;7.07;;;2.75;;
66485;SDS011;53303;47.476;8.084;2023-10-19T13:05:38;5.97;;;3.30;;
66485;SDS011;53303;47.476;8.084;2023-10-19T13:08:09;7.38;;;3.13;;
66485;SDS011;53303;47.476;8.084;2023-10-19T13:10:41;9.52;;;3.03;;
66485;SDS011;53303;47.476;8.084;2023-10-19T13:13:11;6.32;;;2.78;;
66485;SDS011;53303;47.476;8.084;2023-10-19T13:15:43;6.50;;;3.15;;
66485;SDS011;53303;47.476;8.084;2023-10-19T13:18:12;6.78;;;2.80;;
66485;SDS011;53303;47.476;8.084;2023-10-19T13:20:45;7.95;;;3.20;;
66485;SDS011;53303;47.476;8.084;2023-10-19T13:23:13;7.03;;;3.00;;
66485;SDS011;53303;47.476;8.084;2023-10-19T13:25:46;6.65;;;2.97;;
66485;SDS011;53303;47.476;8.084;2023-10-19T13:28:18;6.63;;;2.90;;
66485;SDS011;53303;47.476;8.084;2023-10-19T13:30:51;8.32;;;3.58;;
66485;SDS011;53303;47.476;8.084;2023-10-19T13:33:18;6.10;;;3.33;;
66485;SDS011;53303;47.476;8.084;2023-10-19T13:35:47;6.50;;;3.60;;
66485;SDS011;53303;47.476;8.084;2023-10-19T13:38:13;7.82;;;3.10;;
66485;SDS011;53303;47.476;8.084;2023-10-19T13:40:41;6.32;;;3.78;;
66485;SDS011;53303;47.476;8.084;2023-10-19T13:43:09;6.68;;;3.00;;
66485;SDS011;53303;47.476;8.084;2023-10-19T13:45:41;6.20;;;3.28;;
66485;SDS011;53303;47.476;8.084;2023-10-19T13:48:12;7.70;;;3.15;;
66485;SDS011;53303;47.476;8.084;2023-10-19T13:50:42;6.88;;;3.45;;
66485;SDS011;53303;47.476;8.084;2023-10-19T13:53:15;6.05;;;3.00;;
66485;SDS011;53303;47.476;8.084;2023-10-19T13:55:41;7.22;;;3.28;;
66485;SDS011;53303;47.476;8.084;2023-10-19T13:58:07;6.75;;;3.47;;
66485;SDS011;53303;47.476;8.084;2023-10-19T14:00:34;8.40;;;3.47;;
66485;SDS011;53303;47.476;8.084;2023-10-19T14:03:03;6.05;;;3.75;;
66485;SDS011;53303;47.476;8.084;2023-10-19T14:05:30;5.90;;;3.35;;
66485;SDS011;53303;47.476;8.084;2023-10-19T14:08:16;7.78;;;3.58;;
66485;SDS011;53303;47.476;8.084;2023-10-19T14:10:45;6.53;;;3.35;;
66485;SDS011;53303;47.476;8.084;2023-10-19T14:13:13;7.03;;;4.10;;
66485;SDS011;53303;47.476;8.084;2023-10-19T14:15:40;7.78;;;3.47;;
66485;SDS011;53303;47.476;8.084;2023-10-19T14:18:08;8.73;;;4.00;;
66485;SDS011;53303;47.476;8.084;2023-10-19T14:20:38;7.53;;;4.15;;
66485;SDS011;53303;47.476;8.084;2023-10-19T14:23:06;8.07;;;3.88;;
66485;SDS011;53303;47.476;8.084;2023-10-19T14:25:36;7.75;;;3.53;;
66485;SDS011;53303;47.476;8.084;2023-10-19T14:28:07;8.30;;;4.38;;
66485;SDS011;53303;47.476;8.084;2023-10-19T14:30:37;9.65;;;4.63;;
66485;SDS011;53303;47.476;8.084;2023-10-19T14:33:05;11.27;;;4.32;;
66485;SDS011;53303;47.476;8.084;2023-10-19T14:35:35;9.40;;;4.15;;
66485;SDS011;53303;47.476;8.084;2023-10-19T14:38:04;7.25;;;3.97;;
66485;SDS011;53303;47.476;8.084;2023-10-19T14:40:31;8.02;;;4.05;;
66485;SDS011;53303;47.476;8.084;2023-10-19T14:42:57;7.47;;;3.75;;
66485;SDS011;53303;47.476;8.084;2023-10-19T14:45:27;9.65;;;3.85;;
66485;SDS011;53303;47.476;8.084;2023-10-19T14:47:58;8.55;;;4.05;;
66485;SDS011;53303;47.476;8.084;2023-10-19T14:50:24;9.95;;;4.78;;
66485;SDS011;53303;47.476;8.084;2023-10-19T14:52:52;8.38;;;3.60;;
66485;SDS011;53303;47.476;8.084;2023-10-19T14:55:19;7.80;;;4.03;;
66485;SDS011;53303;47.476;8.084;2023-10-19T14:57:46;7.43;;;3.90;;
66485;SDS011;53303;47.476;8.084;2023-10-19T15:00:19;7.22;;;4.32;;
66485;SDS011;53303;47.476;8.084;2023-10-19T15:02:48;7.57;;;4.13;;
66485;SDS011;53303;47.476;8.084;2023-10-19T15:05:14;8.88;;;4.93;;
66485;SDS011;53303;47.476;8.084;2023-10-19T15:07:43;9.32;;;3.78;;
66485;SDS011;53303;47.476;8.084;2023-10-19T15:10:10;7.20;;;3.83;;
66485;SDS011;53303;47.476;8.084;2023-10-19T15:12:39;7.85;;;3.88;;
66485;SDS011;53303;47.476;8.084;2023-10-19T15:15:07;9.43;;;4.72;;
66485;SDS011;53303;47.476;8.084;2023-10-19T15:17:39;11.63;;;4.10;;
66485;SDS011;53303;47.476;8.084;2023-10-19T15:20:10;9.55;;;4.57;;
66485;SDS011;53303;47.476;8.084;2023-10-19T15:22:39;7.45;;;3.95;;
66485;SDS011;53303;47.476;8.084;2023-10-19T15:25:08;10.15;;;4.53;;